Latest Weather Observations for Ballina

IDN60801

Issued at 11:32 pm EDT Monday 30 March 2015 (issued every 30 minutes, with the page automatically refreshed every 10 minutes)

About weather observations | Map of weather stations | Latest weather observations for NSW | Other Formats
Station Details ID: 058198 Name: BALLINA AIRPORT AWS Lat: -28.84 Lon: 153.56 Height: 1.3 m
Data from the previous 72 hours. | See also: Recent months at Ballina
Date/Time
EDT
Temp
°C
App
Temp
°C
Dew
Point
Rel
Hum
%
Delta-T
°C
Wind Press
QNH
hPa
Press
MSL
hPa
Rain
since 9 am
mm
Dir
 
Spd
km/h
Gust
km/h
Spd
kts
Gust
kts
30/11:30pm 18.9 21.6 17.7 93 0.7 CALM 0 0 0 0 1023.5 1023.5 0.0
30/11:00pm 19.1 21.7 17.4 90 1.0 CALM 0 0 0 0 1023.6 1023.6 0.0
30/10:30pm 19.2 22.0 17.9 92 0.8 CALM 0 0 0 0 1023.7 1023.7 0.0
30/10:00pm 19.3 21.9 17.4 89 1.2 CALM 0 0 0 0 1023.7 1023.7 0.0
30/09:30pm 19.7 21.8 17.3 86 1.5 WNW 2 6 1 3 1023.6 1023.6 0.0
30/09:00pm 20.5 22.0 17.5 83 1.8 NNE 6 7 3 4 1023.5 1023.5 0.0
30/08:30pm 20.7 22.0 17.1 80 2.2 NNE 6 7 3 4 1023.2 1023.2 0.0
30/08:00pm 21.5 22.0 16.5 73 3.0 NE 9 11 5 6 1023.1 1023.1 0.0
30/07:30pm 21.6 21.1 17.0 75 2.8 NE 15 19 8 10 1022.5 1022.5 0.0
30/07:00pm 20.8 20.7 17.0 79 2.3 NE 13 15 7 8 1022.4 1022.4 0.0
30/06:30pm 22.3 22.6 17.0 72 3.2 NE 11 15 6 8 1022.2 1022.2 0.0
30/06:00pm 23.4 23.3 16.9 67 4.0 NE 13 17 7 9 1021.8 1021.8 0.0
30/05:30pm 24.0 23.8 16.8 64 4.4 NE 13 19 7 10 1021.6 1021.6 0.0
30/05:00pm 25.0 24.5 17.7 64 4.6 NE 17 22 9 12 1021.3 1021.3 0.0
30/04:30pm 25.2 24.1 17.4 62 4.9 NNE 19 24 10 13 1021.1 1021.1 0.0
30/04:00pm 25.4 24.9 17.8 62 4.8 NE 17 22 9 12 1021.3 1021.3 0.0
30/03:30pm 25.1 24.7 18.1 65 4.4 NNE 17 24 9 13 1021.2 1021.2 0.0
30/03:00pm 25.5 24.4 17.7 62 4.9 NE 20 28 11 15 1021.2 1021.2 0.0
30/02:30pm 25.1 24.2 18.3 66 4.3 NE 20 28 11 15 1021.3 1021.3 0.0
30/02:00pm 25.1 24.0 17.8 64 4.6 NE 20 30 11 16 1021.7 1021.7 0.0
30/01:30pm 25.5 25.3 18.4 65 4.5 NNE 17 22 9 12 1022.3 1022.3 0.0
30/01:00pm 24.7 24.5 18.4 68 4.0 NNE 17 24 9 13 1022.6 1022.6 0.0
30/12:30pm 24.8 24.1 18.3 67 4.1 NE 19 28 10 15 1023.1 1023.1 0.0
30/12:00pm 25.4 25.4 18.1 64 4.6 NNE 15 28 8 15 1023.3 1023.3 0.0
30/11:30am 25.1 26.4 19.2 70 3.8 NNE 11 17 6 9 1024.0 1024.0 0.0
30/11:00am 25.0 27.4 19.6 72 3.5 N 6 9 3 5 1024.0 1024.0 0.0
30/10:30am 24.3 26.4 19.4 74 3.1 NNW 7 13 4 7 1024.4 1024.4 0.0
30/10:00am 23.8 26.2 19.7 78 2.6 NNW 6 11 3 6 1024.1 1024.1 0.0
30/09:30am 22.4 24.1 18.6 79 2.4 NW 7 11 4 6 1024.2 1024.2 0.0
30/09:00am 20.8 24.4 19.8 94 0.6 CALM 0 7 0 4 1023.9 1023.9 0.0
30/08:30am 19.5 22.9 19.3 99 0.1 CALM 0 0 0 0 1023.5 1023.5 0.0
30/08:00am 18.7 21.8 18.7 100 0.0 CALM 0 0 0 0 1023.2 1023.2 0.0
30/07:30am 17.5 20.0 17.3 99 0.1 CALM 0 0 0 0 1022.7 1022.7 0.0
30/07:00am 16.7 18.9 16.5 99 0.1 CALM 0 4 0 2 1022.5 1022.5 0.0
30/06:30am 17.1 19.5 16.9 99 0.1 CALM 0 0 0 0 1022.4 1022.4 0.0
30/06:00am 17.1 18.3 16.9 99 0.1 N 6 7 3 4 1022.2 1022.2 0.0
30/05:30am 17.3 19.8 17.3 100 0.0 CALM 0 0 0 0 1021.9 1021.9 0.0
30/05:00am 17.1 19.5 16.9 99 0.1 CALM 0 0 0 0 1021.7 1021.7 0.0
30/04:30am 17.2 19.6 16.9 98 0.2 CALM 0 0 0 0 1021.6 1021.6 0.0
30/04:00am 17.1 19.4 16.8 98 0.2 CALM 0 0 0 0 1021.7 1021.7 0.0
30/03:30am 17.4 19.8 17.1 98 0.2 CALM 0 0 0 0 1021.8 1021.8 0.0
30/03:00am 17.2 19.5 16.7 97 0.3 CALM 0 0 0 0 1021.9 1021.9 0.0
30/02:30am 17.4 19.7 16.8 96 0.4 CALM 0 0 0 0 1022.0 1022.0 0.0
30/02:00am 18.0 19.4 17.4 96 0.4 N 6 7 3 4 1022.3 1022.3 0.0
30/01:30am 17.7 18.8 16.7 94 0.6 N 6 6 3 3 1022.5 1022.5 0.0
30/01:00am 18.6 20.0 17.4 93 0.7 N 6 7 3 4 1022.7 1022.7 0.0
30/12:30am 18.4 19.6 16.9 91 0.9 NNW 6 7 3 4 1022.7 1022.7 0.0
30/12:00am 18.9 20.2 17.2 90 1.0 N 6 7 3 4 1022.7 1022.7 0.0
 
Date/Time
EDT
Temp
°C
App
Temp
°C
Dew
Point
Rel
Hum
%
Delta-T
°C
Wind Press
QNH
hPa
Press
MSL
hPa
Rain
since 9 am
mm
Dir
 
Spd
km/h
Gust
km/h
Spd
kts
Gust
kts
29/11:30pm 18.6 19.7 16.6 88 1.2 N 6 7 3 4 1022.6 1022.6 0.0
29/11:00pm 19.7 21.0 17.5 87 1.3 N 7 9 4 5 1022.9 1022.9 0.0
29/10:30pm 19.8 21.3 17.6 87 1.3 N 6 9 3 5 1023.1 1023.1 0.0
29/10:00pm 19.9 21.3 17.3 85 1.6 N 6 7 3 4 1023.3 1023.3 0.0
29/09:30pm 20.6 21.9 17.6 83 1.8 N 7 11 4 6 1023.1 1023.1 0.0
29/09:00pm 21.1 22.4 17.5 80 2.2 N 7 9 4 5 1022.8 1022.8 0.0
29/08:30pm 21.7 22.0 17.1 75 2.8 N 11 17 6 9 1022.5 1022.5 0.0
29/08:00pm 21.9 22.2 17.1 74 2.9 NNE 11 15 6 8 1022.2 1022.2 0.0
29/07:30pm 22.0 22.4 17.2 74 2.9 NNE 11 15 6 8 1021.9 1021.9 0.0
29/07:00pm 22.8 22.8 17.3 71 3.4 NNE 13 17 7 9 1021.8 1021.8 0.0
29/06:30pm 23.5 23.3 17.5 69 3.7 NNE 15 20 8 11 1021.5 1021.5 0.0
29/06:00pm 24.1 22.9 17.6 67 4.0 NNE 20 28 11 15 1021.2 1021.2 0.0
29/05:30pm 25.0 24.3 18.2 66 4.3 NE 19 30 10 16 1021.1 1021.1 0.0
29/05:00pm 25.0 23.4 17.5 63 4.7 NE 22 33 12 18 1020.8 1020.8 0.0
29/04:30pm 25.6 24.2 18.0 63 4.8 NE 22 30 12 16 1020.9 1020.9 0.0
29/04:00pm 25.9 24.2 18.1 62 4.9 NE 24 33 13 18 1020.9 1020.9 0.0
29/03:30pm 26.1 24.6 18.5 63 4.8 NE 24 32 13 17 1021.3 1021.3 0.0
29/03:00pm 26.3 24.9 18.9 63 4.7 NE 24 32 13 17 1021.1 1021.1 0.0
29/02:30pm 26.1 24.4 18.2 61 5.0 NE 24 30 13 16 1021.2 1021.2 0.0
29/02:00pm 26.3 24.9 17.9 60 5.3 NE 22 32 12 17 1021.8 1021.8 0.0
29/01:30pm 26.6 25.7 19.0 63 4.9 NE 22 30 12 16 1022.1 1022.1 0.0
29/01:00pm 26.9 26.1 19.3 63 4.9 NE 22 32 12 17 1022.3 1022.3 0.0
29/12:30pm 26.6 26.1 19.2 64 4.8 NE 20 30 11 16 1022.7 1022.7 0.0
29/12:00pm 26.3 25.6 18.7 63 4.8 NE 20 28 11 15 1023.3 1023.3 0.0
29/11:30am 26.2 25.9 18.3 61 5.0 NE 17 24 9 13 1023.5 1023.5 0.0
29/11:00am 24.5 25.8 18.4 69 3.8 NE 9 13 5 7 1023.7 1023.7 0.0
29/10:30am 25.0 27.1 18.9 69 3.9 NNE 6 11 3 6 1023.8 1023.8 0.0
29/10:00am 24.9 27.5 19.3 71 3.6 NNW 4 9 2 5 1023.7 1023.7 0.0
29/09:30am 23.7 26.1 18.8 74 3.1 SSW 4 7 2 4 1023.6 1023.6 0.0
29/09:00am 22.0 24.2 19.5 86 1.6 W 7 9 4 5 1023.3 1023.3 0.0
29/08:30am 20.2 23.7 19.5 96 0.4 CALM 0 9 0 5 1022.9 1022.9 0.0
29/08:00am 19.6 22.8 18.9 96 0.4 CALM 0 0 0 0 1022.4 1022.4 0.0
29/07:30am 19.5 21.7 19.2 98 0.2 W 6 7 3 4 1022.2 1022.2 0.0
29/07:00am 19.1 20.9 18.8 98 0.2 WSW 7 9 4 5 1021.9 1021.9 0.0
29/06:30am 19.1 21.5 18.9 99 0.1 SW 4 6 2 3 1021.4 1021.4 0.0
29/06:00am 18.8 21.8 18.5 98 0.2 CALM 0 0 0 0 1020.9 1020.9 0.0
29/05:30am 18.9 21.5 18.4 97 0.3 SW 2 6 1 3 1020.6 1020.6 0.0
29/05:00am 19.3 22.1 18.8 97 0.3 SW 2 7 1 4 1020.5 1020.5 0.0
29/04:30am 19.7 22.0 19.4 98 0.2 SW 6 6 3 3 1020.4 1020.4 0.0
29/04:00am 19.5 22.8 19.0 97 0.3 CALM 0 4 0 2 1020.3 1020.3 0.0
29/03:30am 19.5 22.7 18.8 96 0.4 CALM 0 0 0 0 1020.3 1020.3 0.0
29/03:00am 20.5 23.8 19.2 92 0.8 CALM 0 0 0 0 1020.6 1020.6 0.0
29/02:30am 20.6 23.9 19.1 91 0.9 CALM 0 0 0 0 1020.8 1020.8 0.0
29/02:00am 20.9 24.5 19.7 93 0.8 CALM 0 0 0 0 1020.9 1020.9 0.0
29/01:30am 20.8 24.3 19.5 92 0.8 CALM 0 0 0 0 1021.1 1021.1 0.0
29/01:00am 21.1 24.7 19.7 92 0.9 CALM 0 0 0 0 1021.2 1021.2 0.0
29/12:30am 20.9 23.3 19.6 92 0.8 WNW 6 6 3 3 1021.7 1021.7 0.0
29/12:00am 21.6 24.5 19.0 85 1.6 NNE 2 7 1 4 1021.8 1021.8 0.0
 
Date/Time
EDT
Temp
°C
App
Temp
°C
Dew
Point
Rel
Hum
%
Delta-T
°C
Wind Press
QNH
hPa
Press
MSL
hPa
Rain
since 9 am
mm
Dir
 
Spd
km/h
Gust
km/h
Spd
kts
Gust
kts
28/11:30pm 21.9 23.9 19.1 84 1.8 NE 7 11 4 6 1021.7 1021.7 0.0
28/11:00pm 21.8 23.8 19.2 85 1.6 NE 7 9 4 5 1021.9 1021.9 0.0
28/10:30pm 21.4 25.0 19.7 90 1.1 CALM 0 0 0 0 1022.0 1022.0 0.0
28/10:00pm 21.7 25.1 19.3 86 1.5 CALM 0 0 0 0 1021.9 1021.9 0.0
28/09:30pm 21.9 23.7 18.7 82 2.0 NE 7 9 4 5 1021.6 1021.6 0.0
28/09:00pm 21.8 23.3 18.8 83 1.9 NE 9 11 5 6 1021.3 1021.3 0.0
28/08:30pm 21.9 23.2 18.5 81 2.1 ENE 9 13 5 7 1021.3 1021.3 0.0
28/08:00pm 22.2 23.1 18.4 79 2.4 ENE 11 17 6 9 1020.7 1020.7 0.0
28/07:30pm 22.3 22.8 18.3 78 2.5 ENE 13 17 7 9 1020.2 1020.2 0.0
28/07:00pm 22.7 23.6 18.3 76 2.8 ENE 11 15 6 8 1020.0 1020.0 0.0
28/06:30pm 23.7 24.1 18.1 71 3.5 E 13 20 7 11 1019.8 1019.8 0.0
28/06:00pm 24.4 25.0 18.6 70 3.7 E 13 17 7 9 1019.9 1019.9 0.0
28/05:30pm 25.2 24.9 18.2 65 4.4 E 17 22 9 12 1019.6 1019.6 0.0
28/05:00pm 24.8 25.4 18.5 68 4.0 E 13 17 7 9 1019.6 1019.6 0.0
28/04:30pm 25.9 25.4 19.1 66 4.4 SSE 20 30 11 16 1019.6 1019.6 0.0
28/04:00pm 26.2 26.3 21.2 74 3.3 SSE 22 28 12 15 1019.6 1019.6 0.0
28/03:30pm 26.4 26.9 20.9 72 3.6 SE 19 24 10 13 1019.6 1019.6 0.0
28/03:00pm 25.3 24.9 19.4 70 3.8 SSE 20 28 11 15 1019.7 1019.7 0.0
28/02:30pm 25.6 25.5 19.9 70 3.7 SSE 20 28 11 15 1020.0 1020.0 0.0
28/02:00pm 25.2 24.7 18.6 67 4.2 SSE 19 26 10 14 1020.3 1020.3 0.0
28/01:30pm 26.1 26.0 20.0 69 4.0 SE 20 26 11 14 1020.4 1020.4 0.0
28/01:00pm 26.1 25.8 19.5 67 4.2 S 20 26 11 14 1020.9 1020.9 0.0
28/12:30pm 26.1 25.8 19.2 65 4.4 SSE 19 26 10 14 1021.3 1021.3 0.0
28/12:00pm 26.0 26.5 20.1 70 3.8 SSE 17 20 9 11 1021.6 1021.6 0.0
28/11:30am 24.8 26.0 19.8 74 3.2 S 13 17 7 9 1021.8 1021.8 0.0
28/11:00am 25.3 26.4 19.7 71 3.6 S 13 17 7 9 1021.9 1021.9 0.0
28/10:30am 24.5 26.3 19.6 74 3.2 SSW 9 15 5 8 1021.9 1021.9 0.0
28/10:00am 23.7 24.7 18.6 73 3.2 SW 11 15 6 8 1021.8 1021.8 0.0
28/09:30am 23.7 25.0 19.2 76 2.9 WSW 11 15 6 8 1021.6 1021.6 0.0
28/09:00am 22.6 24.0 18.6 78 2.5 W 9 15 5 8 1021.4 1021.4 0.0
28/08:30am 20.9 22.0 17.9 83 1.9 W 9 13 5 7 1021.1 1021.1 0.0
28/08:00am 19.3 20.1 17.3 88 1.2 WSW 9 13 5 7 1020.4 1020.4 0.0
28/07:30am 18.2 19.7 17.6 96 0.4 W 6 7 3 4 1020.1 1020.1 0.0
28/07:00am 17.8 20.2 17.0 95 0.5 CALM 0 7 0 4 1019.8 1019.8 0.0
28/06:30am 17.8 18.9 16.7 93 0.7 WNW 6 6 3 3 1019.5 1019.5 0.0
28/06:00am 18.0 19.2 16.9 93 0.7 WNW 6 7 3 4 1019.3 1019.3 0.0
28/05:30am 18.0 19.0 16.9 93 0.7 W 7 9 4 5 1019.1 1019.1 0.0
28/05:00am 18.4 19.1 17.1 92 0.8 W 9 11 5 6 1018.7 1018.7 0.0
28/04:30am 18.5 19.7 17.3 93 0.7 W 7 9 4 5 1018.7 1018.7 0.0
28/04:00am 19.1 20.7 17.8 92 0.8 W 6 7 3 4 1018.5 1018.5 0.0
28/03:30am 19.3 20.2 17.6 90 1.0 WSW 9 9 5 5 1018.5 1018.5 0.0
28/03:00am 19.5 20.6 18.0 91 0.9 W 9 9 5 5 1018.7 1018.7 0.0
28/02:30am 19.7 21.1 17.8 89 1.2 WSW 7 11 4 6 1018.7 1018.7 0.0
28/02:00am 20.0 21.6 18.3 90 1.1 WSW 7 9 4 5 1018.9 1018.9 0.0
28/01:30am 20.5 22.4 18.6 89 1.2 W 6 7 3 4 1018.9 1018.9 0.0
28/01:00am 20.9 22.7 18.8 88 1.3 W 7 11 4 6 1019.0 1019.0 0.0
28/12:30am 21.7 23.8 19.4 87 1.5 WSW 7 9 4 5 1019.2 1019.2 0.0
28/12:00am 22.0 25.0 20.1 89 1.2 W 4 6 2 3 1019.3 1019.3 0.0

Other Formats:

Comma delimited format used in spreadsheet applications
http://www.bom.gov.au/fwo/IDN60801/IDN60801.94596.axf

JavaScript Object Notation format (JSON) in row-major order
http://www.bom.gov.au/fwo/IDN60801/IDN60801.94596.json